首页
METAR-TAF:

METAR-TAF

机场 :

温尼伯詹姆斯·阿姆斯特朗·理查森国际机场

温尼伯, 曼尼托巴, 加拿大

纬度: 49-54N, 经度: 097-14W, 海拔: 239米

当前天气观测

该预报发布于18分钟前的18:00 UTC
风速17节,风向,有时为24节阵风
温度 29°C
湿度 33%
气压 1012 hPa
能見度: 24.1公里
天空无云

METAR: CYWG 151800Z 19017G24KT 15SM SKC 29/11 A2989 RMK SLP123 DENSITY ALT 2600FT

时间: 13:18 (18:18 UTC)

预报

该预报发布于40分钟前的17:38 UTC
预报有效从15日的 18点(UTC)到 16日的 18点(UTC)
风速15节,风向,有时为25节阵风
能見度: 10公里
天空无云
成为
从 16日的 02点(UTC)到 16日的 04点(UTC)
风速8节,风向西南
从 16日的 0400点(UTC)
风速8节,风向西南
能見度: 10公里
天空无云
短暂存在
从 16日的 04点(UTC)到 16日的 13点(UTC)
能見度: 8.0公里
从 16日的 1300点(UTC)
风速10节,风向西南
能見度: 8.0公里
天空无云
短暂存在
从 16日的 13点(UTC)到 16日的 18点(UTC)
能見度: 3.2公里

TAF: CYWG 151738Z 1518/1618 19015G25KT P6SM SKC BECMG 1602/1604 22008KT FM160400 22008KT P6SM SKC TEMPO 1604/1613 5SM FU FM161300 22010KT 5SM FU SKC TEMPO 1613/1618 2SM FU RMK NXT FCST BY 160000Z

超过4000个机场的气象观测和天气预报(METAR&TAF报告)。

可查询的气象台以黄色和红色小点在地图上表示。

将鼠标移到小点上方,可查看气象台名称。

然后点击查看天气观测和预报。

如需切换地图:点击带黑十字的绿色按钮放大地图;点击带横线的绿色按钮缩小地图;或者点击绿色箭头查看邻近地区的地图。


METAR-TAF: